sensor_id;sensor_type;location;lat;lon;timestamp;temperature;humidity
77613;DHT22;66777;52.282;5.960;2023-03-21T00:01:14;9.30;92.60
77613;DHT22;66777;52.282;5.960;2023-03-21T00:03:40;9.30;92.50
77613;DHT22;66777;52.282;5.960;2023-03-21T00:06:10;9.30;92.50
77613;DHT22;66777;52.282;5.960;2023-03-21T00:08:37;9.30;92.40
77613;DHT22;66777;52.282;5.960;2023-03-21T00:11:05;9.30;92.30
77613;DHT22;66777;52.282;5.960;2023-03-21T00:13:31;9.30;92.20
77613;DHT22;66777;52.282;5.960;2023-03-21T00:16:03;9.30;92.30
77613;DHT22;66777;52.282;5.960;2023-03-21T00:18:29;9.20;92.40
77613;DHT22;66777;52.282;5.960;2023-03-21T00:20:59;9.20;92.60
77613;DHT22;66777;52.282;5.960;2023-03-21T00:23:27;9.20;92.70
77613;DHT22;66777;52.282;5.960;2023-03-21T00:25:53;9.20;92.70
77613;DHT22;66777;52.282;5.960;2023-03-21T00:28:20;9.20;92.80
77613;DHT22;66777;52.282;5.960;2023-03-21T00:30:46;9.20;92.80
77613;DHT22;66777;52.282;5.960;2023-03-21T00:33:11;9.20;93.00
77613;DHT22;66777;52.282;5.960;2023-03-21T00:35:41;9.20;93.00
77613;DHT22;66777;52.282;5.960;2023-03-21T00:38:09;9.20;93.00
77613;DHT22;66777;52.282;5.960;2023-03-21T00:40:36;9.20;93.10
77613;DHT22;66777;52.282;5.960;2023-03-21T00:43:02;9.20;93.20
77613;DHT22;66777;52.282;5.960;2023-03-21T00:45:27;9.20;93.20
77613;DHT22;66777;52.282;5.960;2023-03-21T00:47:53;9.20;93.20
77613;DHT22;66777;52.282;5.960;2023-03-21T00:50:18;9.20;93.30
77613;DHT22;66777;52.282;5.960;2023-03-21T00:52:44;9.20;93.30
77613;DHT22;66777;52.282;5.960;2023-03-21T00:55:13;9.20;93.20
77613;DHT22;66777;52.282;5.960;2023-03-21T00:57:39;9.20;93.30
77613;DHT22;66777;52.282;5.960;2023-03-21T01:00:06;9.20;93.30
77613;DHT22;66777;52.282;5.960;2023-03-21T01:02:35;9.20;93.20
77613;DHT22;66777;52.282;5.960;2023-03-21T01:05:03;9.20;93.20
77613;DHT22;66777;52.282;5.960;2023-03-21T01:07:28;9.20;93.20
77613;DHT22;66777;52.282;5.960;2023-03-21T01:09:54;9.20;93.40
77613;DHT22;66777;52.282;5.960;2023-03-21T01:12:19;9.20;93.40
77613;DHT22;66777;52.282;5.960;2023-03-21T01:14:45;9.20;93.50
77613;DHT22;66777;52.282;5.960;2023-03-21T01:17:11;9.20;93.40
77613;DHT22;66777;52.282;5.960;2023-03-21T01:19:37;9.20;93.30
77613;DHT22;66777;52.282;5.960;2023-03-21T01:22:03;9.20;93.20
77613;DHT22;66777;52.282;5.960;2023-03-21T01:24:28;9.20;93.10
77613;DHT22;66777;52.282;5.960;2023-03-21T01:26:54;9.20;93.40
77613;DHT22;66777;52.282;5.960;2023-03-21T01:29:20;9.20;93.40
77613;DHT22;66777;52.282;5.960;2023-03-21T01:31:45;9.20;93.40
77613;DHT22;66777;52.282;5.960;2023-03-21T01:34:11;9.20;93.30
77613;DHT22;66777;52.282;5.960;2023-03-21T01:36:37;9.20;93.20
77613;DHT22;66777;52.282;5.960;2023-03-21T01:39:03;9.20;93.30
77613;DHT22;66777;52.282;5.960;2023-03-21T01:41:31;9.20;93.30
77613;DHT22;66777;52.282;5.960;2023-03-21T01:43:57;9.20;93.10
77613;DHT22;66777;52.282;5.960;2023-03-21T01:46:33;9.20;93.00
77613;DHT22;66777;52.282;5.960;2023-03-21T01:49:26;9.20;93.00
77613;DHT22;66777;52.282;5.960;2023-03-21T01:52:00;9.20;93.00
77613;DHT22;66777;52.282;5.960;2023-03-21T01:54:31;9.20;93.00
77613;DHT22;66777;52.282;5.960;2023-03-21T01:57:00;9.20;93.10
77613;DHT22;66777;52.282;5.960;2023-03-21T01:59:29;9.20;93.00
77613;DHT22;66777;52.282;5.960;2023-03-21T02:01:56;9.20;92.90
77613;DHT22;66777;52.282;5.960;2023-03-21T02:04:25;9.20;93.00
77613;DHT22;66777;52.282;5.960;2023-03-21T02:09:24;9.20;93.10
77613;DHT22;66777;52.282;5.960;2023-03-21T02:11:51;9.20;93.00
77613;DHT22;66777;52.282;5.960;2023-03-21T02:14:18;9.20;93.00
77613;DHT22;66777;52.282;5.960;2023-03-21T02:16:52;9.20;93.00
77613;DHT22;66777;52.282;5.960;2023-03-21T02:27:20;9.10;92.80
77613;DHT22;66777;52.282;5.960;2023-03-21T02:38:19;9.20;92.70
77613;DHT22;66777;52.282;5.960;2023-03-21T02:41:49;9.20;92.60
77613;DHT22;66777;52.282;5.960;2023-03-21T02:43:54;9.10;92.50
77613;DHT22;66777;52.282;5.960;2023-03-21T02:46:42;9.10;92.50
77613;DHT22;66777;52.282;5.960;2023-03-21T02:49:25;9.10;92.30
77613;DHT22;66777;52.282;5.960;2023-03-21T02:51:56;9.10;92.20
77613;DHT22;66777;52.282;5.960;2023-03-21T02:54:23;9.10;92.30
77613;DHT22;66777;52.282;5.960;2023-03-21T02:56:51;9.10;92.20
77613;DHT22;66777;52.282;5.960;2023-03-21T02:59:20;9.10;92.20
77613;DHT22;66777;52.282;5.960;2023-03-21T03:01:46;9.10;92.20
77613;DHT22;66777;52.282;5.960;2023-03-21T03:04:25;9.00;92.10
77613;DHT22;66777;52.282;5.960;2023-03-21T03:09:38;9.10;92.20
77613;DHT22;66777;52.282;5.960;2023-03-21T03:18:00;9.10;92.00
77613;DHT22;66777;52.282;5.960;2023-03-21T03:26:25;9.10;91.70
77613;DHT22;66777;52.282;5.960;2023-03-21T03:28:55;9.00;91.60
77613;DHT22;66777;52.282;5.960;2023-03-21T03:31:28;9.00;91.50
77613;DHT22;66777;52.282;5.960;2023-03-21T03:33:57;9.00;91.50
77613;DHT22;66777;52.282;5.960;2023-03-21T03:36:30;9.00;91.60
77613;DHT22;66777;52.282;5.960;2023-03-21T03:39:02;9.00;91.50
77613;DHT22;66777;52.282;5.960;2023-03-21T03:41:29;9.00;91.60
77613;DHT22;66777;52.282;5.960;2023-03-21T03:43:59;9.00;91.70
77613;DHT22;66777;52.282;5.960;2023-03-21T03:49:01;9.00;91.60
77613;DHT22;66777;52.282;5.960;2023-03-21T03:51:37;9.00;91.50
77613;DHT22;66777;52.282;5.960;2023-03-21T03:54:13;9.00;91.50
77613;DHT22;66777;52.282;5.960;2023-03-21T03:56:42;9.00;91.60
77613;DHT22;66777;52.282;5.960;2023-03-21T03:59:08;9.00;91.80
77613;DHT22;66777;52.282;5.960;2023-03-21T04:01:36;9.00;91.90
77613;DHT22;66777;52.282;5.960;2023-03-21T04:04:02;9.00;91.80
77613;DHT22;66777;52.282;5.960;2023-03-21T04:06:27;9.00;91.90
77613;DHT22;66777;52.282;5.960;2023-03-21T04:08:55;9.00;91.80
77613;DHT22;66777;52.282;5.960;2023-03-21T04:11:22;9.00;91.80
77613;DHT22;66777;52.282;5.960;2023-03-21T04:13:48;9.00;91.80
77613;DHT22;66777;52.282;5.960;2023-03-21T04:16:14;9.00;91.80
77613;DHT22;66777;52.282;5.960;2023-03-21T04:18:40;9.00;91.60
77613;DHT22;66777;52.282;5.960;2023-03-21T04:21:10;9.00;91.80
77613;DHT22;66777;52.282;5.960;2023-03-21T04:23:37;9.00;91.60
77613;DHT22;66777;52.282;5.960;2023-03-21T04:26:04;9.00;91.60
77613;DHT22;66777;52.282;5.960;2023-03-21T04:28:31;9.00;91.50
77613;DHT22;66777;52.282;5.960;2023-03-21T04:30:58;9.00;91.50
77613;DHT22;66777;52.282;5.960;2023-03-21T04:33:24;9.00;91.50
77613;DHT22;66777;52.282;5.960;2023-03-21T04:35:51;9.00;91.50
77613;DHT22;66777;52.282;5.960;2023-03-21T04:38:21;9.00;91.50
77613;DHT22;66777;52.282;5.960;2023-03-21T04:40:47;9.00;91.50
77613;DHT22;66777;52.282;5.960;2023-03-21T04:43:12;9.00;91.50
77613;DHT22;66777;52.282;5.960;2023-03-21T04:45:38;9.00;91.70
77613;DHT22;66777;52.282;5.960;2023-03-21T04:48:04;9.00;91.90
77613;DHT22;66777;52.282;5.960;2023-03-21T04:50:30;9.00;91.90
77613;DHT22;66777;52.282;5.960;2023-03-21T04:52:56;9.00;92.10
77613;DHT22;66777;52.282;5.960;2023-03-21T04:55:22;9.00;92.20
77613;DHT22;66777;52.282;5.960;2023-03-21T04:57:52;9.00;92.20
77613;DHT22;66777;52.282;5.960;2023-03-21T05:00:19;9.00;92.40
77613;DHT22;66777;52.282;5.960;2023-03-21T05:02:45;9.00;92.50
77613;DHT22;66777;52.282;5.960;2023-03-21T05:05:11;9.00;92.50
77613;DHT22;66777;52.282;5.960;2023-03-21T05:07:38;9.00;92.50
77613;DHT22;66777;52.282;5.960;2023-03-21T05:10:05;9.00;92.50
77613;DHT22;66777;52.282;5.960;2023-03-21T05:12:31;8.90;92.30
77613;DHT22;66777;52.282;5.960;2023-03-21T05:14:56;8.90;92.50
77613;DHT22;66777;52.282;5.960;2023-03-21T05:17:22;9.00;92.50
77613;DHT22;66777;52.282;5.960;2023-03-21T05:19:49;9.00;92.60
77613;DHT22;66777;52.282;5.960;2023-03-21T05:22:18;8.90;92.50
77613;DHT22;66777;52.282;5.960;2023-03-21T05:24:44;9.00;92.70
77613;DHT22;66777;52.282;5.960;2023-03-21T05:27:16;9.00;92.70
77613;DHT22;66777;52.282;5.960;2023-03-21T05:30:02;9.00;92.70
77613;DHT22;66777;52.282;5.960;2023-03-21T05:32:28;9.00;92.80
77613;DHT22;66777;52.282;5.960;2023-03-21T05:34:55;8.90;92.70
77613;DHT22;66777;52.282;5.960;2023-03-21T05:37:21;9.00;92.70
77613;DHT22;66777;52.282;5.960;2023-03-21T05:39:50;9.00;92.70
77613;DHT22;66777;52.282;5.960;2023-03-21T05:42:16;9.00;92.60
77613;DHT22;66777;52.282;5.960;2023-03-21T05:44:43;8.90;92.50
77613;DHT22;66777;52.282;5.960;2023-03-21T05:47:14;8.90;92.50
77613;DHT22;66777;52.282;5.960;2023-03-21T05:49:40;8.90;92.70
77613;DHT22;66777;52.282;5.960;2023-03-21T05:52:06;8.90;92.60
77613;DHT22;66777;52.282;5.960;2023-03-21T05:54:32;8.90;92.50
77613;DHT22;66777;52.282;5.960;2023-03-21T05:56:57;8.90;92.70
77613;DHT22;66777;52.282;5.960;2023-03-21T05:59:23;8.90;92.60
77613;DHT22;66777;52.282;5.960;2023-03-21T06:01:48;8.90;92.60
77613;DHT22;66777;52.282;5.960;2023-03-21T06:04:14;8.90;92.80
77613;DHT22;66777;52.282;5.960;2023-03-21T06:06:40;8.90;92.70
77613;DHT22;66777;52.282;5.960;2023-03-21T06:09:06;8.90;92.50
77613;DHT22;66777;52.282;5.960;2023-03-21T06:11:35;8.90;92.60
77613;DHT22;66777;52.282;5.960;2023-03-21T06:14:01;8.90;92.50
77613;DHT22;66777;52.282;5.960;2023-03-21T06:16:27;8.90;92.60
77613;DHT22;66777;52.282;5.960;2023-03-21T06:18:53;8.90;92.60
77613;DHT22;66777;52.282;5.960;2023-03-21T06:21:19;8.90;92.70
77613;DHT22;66777;52.282;5.960;2023-03-21T06:23:46;8.90;92.80
77613;DHT22;66777;52.282;5.960;2023-03-21T06:26:12;8.90;92.70
77613;DHT22;66777;52.282;5.960;2023-03-21T06:28:38;8.90;92.50
77613;DHT22;66777;52.282;5.960;2023-03-21T06:31:04;8.90;92.60
77613;DHT22;66777;52.282;5.960;2023-03-21T06:33:30;8.90;92.70
77613;DHT22;66777;52.282;5.960;2023-03-21T06:35:57;8.90;92.80
77613;DHT22;66777;52.282;5.960;2023-03-21T06:38:24;9.00;92.80
77613;DHT22;66777;52.282;5.960;2023-03-21T06:40:50;9.00;92.80
77613;DHT22;66777;52.282;5.960;2023-03-21T06:43:16;9.00;92.80
77613;DHT22;66777;52.282;5.960;2023-03-21T06:45:42;9.00;92.60
77613;DHT22;66777;52.282;5.960;2023-03-21T06:48:08;9.00;92.60
77613;DHT22;66777;52.282;5.960;2023-03-21T06:50:35;9.00;92.50
77613;DHT22;66777;52.282;5.960;2023-03-21T06:53:00;9.00;92.30
77613;DHT22;66777;52.282;5.960;2023-03-21T06:55:26;9.00;92.50
77613;DHT22;66777;52.282;5.960;2023-03-21T06:57:54;9.10;92.20
77613;DHT22;66777;52.282;5.960;2023-03-21T07:00:20;9.20;92.40
77613;DHT22;66777;52.282;5.960;2023-03-21T07:02:47;9.20;92.40
77613;DHT22;66777;52.282;5.960;2023-03-21T07:05:13;9.20;92.40
77613;DHT22;66777;52.282;5.960;2023-03-21T07:07:39;9.20;92.20
77613;DHT22;66777;52.282;5.960;2023-03-21T07:10:05;9.30;92.10
77613;DHT22;66777;52.282;5.960;2023-03-21T07:12:31;9.30;92.10
77613;DHT22;66777;52.282;5.960;2023-03-21T07:15:00;9.30;91.80
77613;DHT22;66777;52.282;5.960;2023-03-21T07:17:26;9.40;92.00
77613;DHT22;66777;52.282;5.960;2023-03-21T07:19:52;9.40;91.80
77613;DHT22;66777;52.282;5.960;2023-03-21T07:22:17;9.40;91.70
77613;DHT22;66777;52.282;5.960;2023-03-21T07:24:43;9.40;91.80
77613;DHT22;66777;52.282;5.960;2023-03-21T07:27:13;9.40;91.70
77613;DHT22;66777;52.282;5.960;2023-03-21T07:29:38;9.40;92.00
77613;DHT22;66777;52.282;5.960;2023-03-21T07:32:04;9.40;92.20
77613;DHT22;66777;52.282;5.960;2023-03-21T07:34:29;9.40;92.20
77613;DHT22;66777;52.282;5.960;2023-03-21T07:36:58;9.40;92.20
77613;DHT22;66777;52.282;5.960;2023-03-21T07:39:24;9.40;92.20
77613;DHT22;66777;52.282;5.960;2023-03-21T07:41:50;9.50;91.90
77613;DHT22;66777;52.282;5.960;2023-03-21T07:44:16;9.50;92.10
77613;DHT22;66777;52.282;5.960;2023-03-21T07:46:41;9.60;91.90
77613;DHT22;66777;52.282;5.960;2023-03-21T07:49:07;9.70;91.30
77613;DHT22;66777;52.282;5.960;2023-03-21T07:51:34;9.70;91.40
77613;DHT22;66777;52.282;5.960;2023-03-21T07:54:00;9.80;90.90
77613;DHT22;66777;52.282;5.960;2023-03-21T07:56:27;9.80;90.90
77613;DHT22;66777;52.282;5.960;2023-03-21T07:58:52;9.80;90.90
77613;DHT22;66777;52.282;5.960;2023-03-21T08:01:18;9.80;91.40
77613;DHT22;66777;52.282;5.960;2023-03-21T08:03:46;9.90;91.50
77613;DHT22;66777;52.282;5.960;2023-03-21T08:06:12;9.80;91.30
77613;DHT22;66777;52.282;5.960;2023-03-21T08:08:38;9.70;91.00
77613;DHT22;66777;52.282;5.960;2023-03-21T08:11:04;9.70;90.60
77613;DHT22;66777;52.282;5.960;2023-03-21T08:13:31;9.70;91.20
77613;DHT22;66777;52.282;5.960;2023-03-21T08:15:56;9.70;91.10
77613;DHT22;66777;52.282;5.960;2023-03-21T08:18:22;9.60;91.10
77613;DHT22;66777;52.282;5.960;2023-03-21T08:20:54;9.50;91.30
77613;DHT22;66777;52.282;5.960;2023-03-21T08:23:20;9.50;91.90
77613;DHT22;66777;52.282;5.960;2023-03-21T08:25:53;9.40;91.90
77613;DHT22;66777;52.282;5.960;2023-03-21T08:28:19;9.50;92.20
77613;DHT22;66777;52.282;5.960;2023-03-21T08:30:46;9.60;92.50
77613;DHT22;66777;52.282;5.960;2023-03-21T08:33:12;9.60;92.40
77613;DHT22;66777;52.282;5.960;2023-03-21T08:35:41;9.60;92.10
77613;DHT22;66777;52.282;5.960;2023-03-21T08:38:06;9.70;92.20
77613;DHT22;66777;52.282;5.960;2023-03-21T08:40:32;9.70;91.90
77613;DHT22;66777;52.282;5.960;2023-03-21T08:42:58;9.80;92.20
77613;DHT22;66777;52.282;5.960;2023-03-21T08:45:24;9.90;92.20
77613;DHT22;66777;52.282;5.960;2023-03-21T08:47:51;10.00;91.90
77613;DHT22;66777;52.282;5.960;2023-03-21T08:50:19;10.00;92.00
77613;DHT22;66777;52.282;5.960;2023-03-21T08:52:48;10.10;92.00
77613;DHT22;66777;52.282;5.960;2023-03-21T08:55:31;10.10;91.80
77613;DHT22;66777;52.282;5.960;2023-03-21T08:58:03;10.30;91.90
77613;DHT22;66777;52.282;5.960;2023-03-21T09:00:28;10.30;91.50
77613;DHT22;66777;52.282;5.960;2023-03-21T09:02:54;10.30;90.60
77613;DHT22;66777;52.282;5.960;2023-03-21T09:05:21;10.30;91.00
77613;DHT22;66777;52.282;5.960;2023-03-21T09:07:50;10.30;91.20
77613;DHT22;66777;52.282;5.960;2023-03-21T09:10:19;10.30;90.90
77613;DHT22;66777;52.282;5.960;2023-03-21T09:12:46;10.40;91.30
77613;DHT22;66777;52.282;5.960;2023-03-21T09:15:12;10.40;91.60
77613;DHT22;66777;52.282;5.960;2023-03-21T09:17:38;10.40;92.60
77613;DHT22;66777;52.282;5.960;2023-03-21T09:20:09;10.30;92.50
77613;DHT22;66777;52.282;5.960;2023-03-21T09:22:37;10.30;92.70
77613;DHT22;66777;52.282;5.960;2023-03-21T09:25:03;10.30;92.90
77613;DHT22;66777;52.282;5.960;2023-03-21T09:27:36;10.40;93.20
77613;DHT22;66777;52.282;5.960;2023-03-21T09:30:02;10.50;93.40
77613;DHT22;66777;52.282;5.960;2023-03-21T09:32:30;10.50;93.20
77613;DHT22;66777;52.282;5.960;2023-03-21T09:34:56;10.60;92.90
77613;DHT22;66777;52.282;5.960;2023-03-21T09:37:22;10.70;93.20
77613;DHT22;66777;52.282;5.960;2023-03-21T09:39:47;10.80;92.10
77613;DHT22;66777;52.282;5.960;2023-03-21T09:42:39;10.80;92.10
77613;DHT22;66777;52.282;5.960;2023-03-21T09:45:11;10.80;92.00
77613;DHT22;66777;52.282;5.960;2023-03-21T09:47:43;10.80;91.70
77613;DHT22;66777;52.282;5.960;2023-03-21T09:50:20;10.70;91.10
77613;DHT22;66777;52.282;5.960;2023-03-21T09:53:08;10.60;89.90
77613;DHT22;66777;52.282;5.960;2023-03-21T09:55:38;10.60;90.40
77613;DHT22;66777;52.282;5.960;2023-03-21T09:58:27;10.70;91.20
77613;DHT22;66777;52.282;5.960;2023-03-21T10:01:07;10.80;91.10
77613;DHT22;66777;52.282;5.960;2023-03-21T10:03:35;10.90;90.40
77613;DHT22;66777;52.282;5.960;2023-03-21T10:06:09;11.00;90.60
77613;DHT22;66777;52.282;5.960;2023-03-21T10:08:42;11.00;90.30
77613;DHT22;66777;52.282;5.960;2023-03-21T10:14:00;11.00;89.80
77613;DHT22;66777;52.282;5.960;2023-03-21T10:16:30;11.00;89.90
77613;DHT22;66777;52.282;5.960;2023-03-21T10:18:58;11.00;89.90
77613;DHT22;66777;52.282;5.960;2023-03-21T10:21:27;11.00;89.80
77613;DHT22;66777;52.282;5.960;2023-03-21T10:23:54;11.00;89.60
77613;DHT22;66777;52.282;5.960;2023-03-21T10:26:24;11.00;89.30
77613;DHT22;66777;52.282;5.960;2023-03-21T10:28:53;11.10;89.20
77613;DHT22;66777;52.282;5.960;2023-03-21T10:31:22;11.10;88.30
77613;DHT22;66777;52.282;5.960;2023-03-21T10:33:51;11.30;87.20
77613;DHT22;66777;52.282;5.960;2023-03-21T10:36:26;11.40;87.30
77613;DHT22;66777;52.282;5.960;2023-03-21T10:39:18;11.60;87.00
77613;DHT22;66777;52.282;5.960;2023-03-21T10:41:45;11.90;87.00
77613;DHT22;66777;52.282;5.960;2023-03-21T10:44:16;12.10;87.00
77613;DHT22;66777;52.282;5.960;2023-03-21T10:49:16;12.10;85.40
77613;DHT22;66777;52.282;5.960;2023-03-21T10:51:43;12.10;85.10
77613;DHT22;66777;52.282;5.960;2023-03-21T10:54:16;12.10;85.00
77613;DHT22;66777;52.282;5.960;2023-03-21T10:56:51;12.00;85.10
77613;DHT22;66777;52.282;5.960;2023-03-21T10:59:19;12.10;84.30
77613;DHT22;66777;52.282;5.960;2023-03-21T11:01:51;12.20;84.00
77613;DHT22;66777;52.282;5.960;2023-03-21T11:04:20;12.30;81.80
77613;DHT22;66777;52.282;5.960;2023-03-21T11:06:58;12.40;83.20
77613;DHT22;66777;52.282;5.960;2023-03-21T11:09:41;12.70;83.50
77613;DHT22;66777;52.282;5.960;2023-03-21T11:12:13;12.90;82.60
77613;DHT22;66777;52.282;5.960;2023-03-21T11:14:44;13.00;81.60
77613;DHT22;66777;52.282;5.960;2023-03-21T11:22:19;13.20;81.10
77613;DHT22;66777;52.282;5.960;2023-03-21T11:24:51;13.50;79.10
77613;DHT22;66777;52.282;5.960;2023-03-21T11:27:17;14.50;75.70
77613;DHT22;66777;52.282;5.960;2023-03-21T11:29:49;14.80;77.20
77613;DHT22;66777;52.282;5.960;2023-03-21T11:34:56;15.10;74.60
77613;DHT22;66777;52.282;5.960;2023-03-21T11:42:31;14.40;77.00
77613;DHT22;66777;52.282;5.960;2023-03-21T11:45:09;14.00;78.50
77613;DHT22;66777;52.282;5.960;2023-03-21T11:47:36;13.50;78.20
77613;DHT22;66777;52.282;5.960;2023-03-21T11:50:23;13.20;79.30
77613;DHT22;66777;52.282;5.960;2023-03-21T12:04:36;13.30;78.90
77613;DHT22;66777;52.282;5.960;2023-03-21T12:09:56;17.20;70.70
77613;DHT22;66777;52.282;5.960;2023-03-21T12:18:40;15.50;72.90
77613;DHT22;66777;52.282;5.960;2023-03-21T12:21:30;14.70;75.80
77613;DHT22;66777;52.282;5.960;2023-03-21T12:24:10;14.20;76.50
77613;DHT22;66777;52.282;5.960;2023-03-21T12:35:12;13.30;75.10
77613;DHT22;66777;52.282;5.960;2023-03-21T12:45:45;13.00;76.80
77613;DHT22;66777;52.282;5.960;2023-03-21T12:48:21;13.10;75.40
77613;DHT22;66777;52.282;5.960;2023-03-21T12:50:53;13.10;77.30
77613;DHT22;66777;52.282;5.960;2023-03-21T12:53:43;13.40;77.60
77613;DHT22;66777;52.282;5.960;2023-03-21T12:56:13;13.50;75.10
77613;DHT22;66777;52.282;5.960;2023-03-21T12:58:49;13.70;74.00
77613;DHT22;66777;52.282;5.960;2023-03-21T13:01:18;13.80;72.90
77613;DHT22;66777;52.282;5.960;2023-03-21T13:03:49;14.10;73.80
77613;DHT22;66777;52.282;5.960;2023-03-21T13:06:17;14.20;71.10
77613;DHT22;66777;52.282;5.960;2023-03-21T13:09:06;14.00;72.00
77613;DHT22;66777;52.282;5.960;2023-03-21T13:11:34;13.70;72.10
77613;DHT22;66777;52.282;5.960;2023-03-21T13:14:07;13.50;71.50
77613;DHT22;66777;52.282;5.960;2023-03-21T13:16:52;13.30;72.00
77613;DHT22;66777;52.282;5.960;2023-03-21T13:21:55;13.90;72.30
77613;DHT22;66777;52.282;5.960;2023-03-21T13:27:12;14.50;70.30
77613;DHT22;66777;52.282;5.960;2023-03-21T13:29:49;14.80;68.90
77613;DHT22;66777;52.282;5.960;2023-03-21T13:37:26;14.70;70.70
77613;DHT22;66777;52.282;5.960;2023-03-21T13:40:00;14.60;68.40
77613;DHT22;66777;52.282;5.960;2023-03-21T13:42:35;14.40;71.30
77613;DHT22;66777;52.282;5.960;2023-03-21T13:45:10;15.00;70.60
77613;DHT22;66777;52.282;5.960;2023-03-21T13:47:55;18.50;63.30
77613;DHT22;66777;52.282;5.960;2023-03-21T13:50:50;18.30;61.30
77613;DHT22;66777;52.282;5.960;2023-03-21T13:55:42;18.40;63.30
77613;DHT22;66777;52.282;5.960;2023-03-21T14:04:33;16.20;63.90
77613;DHT22;66777;52.282;5.960;2023-03-21T14:07:08;15.60;66.30
77613;DHT22;66777;52.282;5.960;2023-03-21T14:09:45;15.80;65.30
77613;DHT22;66777;52.282;5.960;2023-03-21T14:12:17;16.00;67.00
77613;DHT22;66777;52.282;5.960;2023-03-21T14:14:51;15.90;64.80
77613;DHT22;66777;52.282;5.960;2023-03-21T14:17:29;16.30;64.70
77613;DHT22;66777;52.282;5.960;2023-03-21T14:20:01;18.50;59.80
77613;DHT22;66777;52.282;5.960;2023-03-21T14:22:35;20.50;57.10
77613;DHT22;66777;52.282;5.960;2023-03-21T14:25:02;19.50;56.50
77613;DHT22;66777;52.282;5.960;2023-03-21T14:27:33;19.20;58.40
77613;DHT22;66777;52.282;5.960;2023-03-21T14:30:00;18.70;56.40
77613;DHT22;66777;52.282;5.960;2023-03-21T14:32:28;18.70;57.70
77613;DHT22;66777;52.282;5.960;2023-03-21T14:34:56;18.80;57.30
77613;DHT22;66777;52.282;5.960;2023-03-21T14:37:40;19.50;56.40
77613;DHT22;66777;52.282;5.960;2023-03-21T14:40:19;18.40;59.90
77613;DHT22;66777;52.282;5.960;2023-03-21T14:42:47;17.60;61.20
77613;DHT22;66777;52.282;5.960;2023-03-21T14:45:25;17.20;63.90
77613;DHT22;66777;52.282;5.960;2023-03-21T14:50:39;19.90;54.50
77613;DHT22;66777;52.282;5.960;2023-03-21T14:53:10;21.10;55.90
77613;DHT22;66777;52.282;5.960;2023-03-21T14:55:45;20.30;55.70
77613;DHT22;66777;52.282;5.960;2023-03-21T14:58:13;20.70;54.80
77613;DHT22;66777;52.282;5.960;2023-03-21T15:00:40;19.70;57.20
77613;DHT22;66777;52.282;5.960;2023-03-21T15:03:06;18.20;60.90
77613;DHT22;66777;52.282;5.960;2023-03-21T15:05:34;17.00;61.90
77613;DHT22;66777;52.282;5.960;2023-03-21T15:10:36;15.50;62.50
77613;DHT22;66777;52.282;5.960;2023-03-21T15:13:14;15.40;65.60
77613;DHT22;66777;52.282;5.960;2023-03-21T15:15:40;15.20;63.20
77613;DHT22;66777;52.282;5.960;2023-03-21T15:18:24;15.00;64.60
77613;DHT22;66777;52.282;5.960;2023-03-21T15:20:50;14.80;64.60
77613;DHT22;66777;52.282;5.960;2023-03-21T15:23:35;14.50;65.90
77613;DHT22;66777;52.282;5.960;2023-03-21T15:26:03;14.10;66.40
77613;DHT22;66777;52.282;5.960;2023-03-21T15:28:31;13.90;67.00
77613;DHT22;66777;52.282;5.960;2023-03-21T15:30:58;13.90;67.70
77613;DHT22;66777;52.282;5.960;2023-03-21T15:33:24;13.70;68.40
77613;DHT22;66777;52.282;5.960;2023-03-21T15:35:52;13.60;67.80
77613;DHT22;66777;52.282;5.960;2023-03-21T15:38:33;13.50;68.50
77613;DHT22;66777;52.282;5.960;2023-03-21T15:49:09;13.50;69.30
77613;DHT22;66777;52.282;5.960;2023-03-21T15:51:35;13.50;68.90
77613;DHT22;66777;52.282;5.960;2023-03-21T15:54:02;13.50;69.40
77613;DHT22;66777;52.282;5.960;2023-03-21T15:56:27;13.60;70.30
77613;DHT22;66777;52.282;5.960;2023-03-21T15:59:03;13.50;70.40
77613;DHT22;66777;52.282;5.960;2023-03-21T16:01:31;13.30;70.90
77613;DHT22;66777;52.282;5.960;2023-03-21T16:04:09;13.20;71.20
77613;DHT22;66777;52.282;5.960;2023-03-21T16:06:36;13.10;70.30
77613;DHT22;66777;52.282;5.960;2023-03-21T16:09:12;13.10;71.10
77613;DHT22;66777;52.282;5.960;2023-03-21T16:11:58;13.10;70.50
77613;DHT22;66777;52.282;5.960;2023-03-21T16:14:25;13.10;72.80
77613;DHT22;66777;52.282;5.960;2023-03-21T16:16:55;13.10;72.90
77613;DHT22;66777;52.282;5.960;2023-03-21T16:19:22;13.00;70.90
77613;DHT22;66777;52.282;5.960;2023-03-21T16:21:49;13.00;72.20
77613;DHT22;66777;52.282;5.960;2023-03-21T16:24:14;13.00;73.10
77613;DHT22;66777;52.282;5.960;2023-03-21T16:26:45;12.90;71.60
77613;DHT22;66777;52.282;5.960;2023-03-21T16:29:13;12.80;72.80
77613;DHT22;66777;52.282;5.960;2023-03-21T16:31:43;12.80;73.40
77613;DHT22;66777;52.282;5.960;2023-03-21T16:34:09;12.70;72.50
77613;DHT22;66777;52.282;5.960;2023-03-21T16:36:37;12.60;73.10
77613;DHT22;66777;52.282;5.960;2023-03-21T16:39:23;12.50;72.70
77613;DHT22;66777;52.282;5.960;2023-03-21T16:41:50;12.50;73.20
77613;DHT22;66777;52.282;5.960;2023-03-21T16:44:16;12.50;73.40
77613;DHT22;66777;52.282;5.960;2023-03-21T16:46:42;12.50;72.40
77613;DHT22;66777;52.282;5.960;2023-03-21T16:49:23;12.50;73.20
77613;DHT22;66777;52.282;5.960;2023-03-21T16:51:49;12.40;73.60
77613;DHT22;66777;52.282;5.960;2023-03-21T16:54:16;12.40;74.00
77613;DHT22;66777;52.282;5.960;2023-03-21T16:56:44;12.30;73.60
77613;DHT22;66777;52.282;5.960;2023-03-21T16:59:12;12.30;74.10
77613;DHT22;66777;52.282;5.960;2023-03-21T17:01:38;12.10;76.10
77613;DHT22;66777;52.282;5.960;2023-03-21T17:04:06;11.90;77.70
77613;DHT22;66777;52.282;5.960;2023-03-21T17:06:39;11.70;78.60
77613;DHT22;66777;52.282;5.960;2023-03-21T17:09:06;11.70;79.50
77613;DHT22;66777;52.282;5.960;2023-03-21T17:11:31;11.60;79.50
77613;DHT22;66777;52.282;5.960;2023-03-21T17:14:01;11.60;79.90
77613;DHT22;66777;52.282;5.960;2023-03-21T17:16:27;11.60;80.00
77613;DHT22;66777;52.282;5.960;2023-03-21T17:18:53;11.50;81.10
77613;DHT22;66777;52.282;5.960;2023-03-21T17:21:24;11.40;82.00
77613;DHT22;66777;52.282;5.960;2023-03-21T17:23:51;11.30;82.30
77613;DHT22;66777;52.282;5.960;2023-03-21T17:26:20;11.20;82.80
77613;DHT22;66777;52.282;5.960;2023-03-21T17:28:46;11.20;82.70
77613;DHT22;66777;52.282;5.960;2023-03-21T17:31:16;11.10;83.20
77613;DHT22;66777;52.282;5.960;2023-03-21T17:33:42;11.10;83.00
77613;DHT22;66777;52.282;5.960;2023-03-21T17:36:13;11.10;83.50
77613;DHT22;66777;52.282;5.960;2023-03-21T17:38:39;11.10;83.40
77613;DHT22;66777;52.282;5.960;2023-03-21T17:41:05;11.10;83.60
77613;DHT22;66777;52.282;5.960;2023-03-21T17:43:30;11.00;83.60
77613;DHT22;66777;52.282;5.960;2023-03-21T17:45:56;10.90;84.00
77613;DHT22;66777;52.282;5.960;2023-03-21T17:48:21;10.90;84.20
77613;DHT22;66777;52.282;5.960;2023-03-21T17:50:47;10.90;84.40
77613;DHT22;66777;52.282;5.960;2023-03-21T17:53:13;10.80;84.50
77613;DHT22;66777;52.282;5.960;2023-03-21T17:55:39;10.80;84.60
77613;DHT22;66777;52.282;5.960;2023-03-21T17:58:05;10.80;85.00